CheckWX is a tool to help pilots better visualize weather data.  It is not intended as a substitute for an official pre-flight weather briefing.

15:31:15 UTC

KSLK METAR
Adirondack Regional Airport
Saranac Lake, New York, USA
Current

40 mins ago

KSLK 261451Z AUTO 28007G19KT 240V360 10SM BKN032 BKN038 19/13 A2986 RMK AO2 SLP107 T01940128 53006
Observed
May-26 @ 14:51 UTC
Wind
  • 280° at 7 KTS
  • Gusting to 19 KTS
Visibility
10 SM
Flight Rules
VFR
Cloud Levels
  • Broken at 3,200' AGL
  • Broken at 3,800' AGL
Temperature
19°C / 66°F
Dewpoint
13°C / 55°F
Humidity
68%
Altimeter
29.86" Hg
Pressure
1011.22 hPa
Previous

2 hours ago

KSLK 261351Z AUTO 25008KT 10SM SCT016 SCT020 19/15 A2984 RMK AO2 SLP102 T01890150
Observed
May-26 @ 13:51 UTC
Wind
  • 250° at 8 KTS
Visibility
10 SM
Flight Rules
VFR
Cloud Levels
  • Scattered at 1,600' AGL
  • Scattered at 2,000' AGL
Temperature
19°C / 66°F
Dewpoint
15°C / 59°F
Humidity
78%
Altimeter
29.84" Hg
Pressure
1010.52 hPa
Previous

2 hours ago

KSLK 261339Z AUTO 25006KT 10SM SCT016 19/16 A2984 RMK AO2 T01890156
Observed
May-26 @ 13:39 UTC
Wind
  • 250° at 6 KTS
Visibility
10 SM
Flight Rules
VFR
Cloud Levels
  • Scattered at 1,600' AGL
Temperature
19°C / 66°F
Dewpoint
16°C / 61°F
Humidity
83%
Altimeter
29.84" Hg
Pressure
1010.52 hPa